Aviation Digital Data Service (ADDS)

Output produced by METARs form (1047 UTC 10 February 2016)
found at http://aviationweather.gov/adds/metars/
 
KDET 100525Z 1006/1106 30013KT 2SM -SN OVC015 
     FM100700 30013KT P6SM -SHSN OVC025 
     FM101500 32013G18KT 6SM -SHSN BKN025 OVC035 
     FM102200 32013KT P6SM SCT035 BKN045 
     FM110400 30011KT P6SM SCT045